Sophia Golding — WDG4196 — position and weather

sailwx.info

Track history (hours):
 
Tides and Currents Weather Stations Pressure Air Temp Water Temp Dewpoint Dewpoint Depression Visibility Wind Speed Wind Dir Waves Ship Positions

Sophia Golding

Owner: GOLDING BARGE LINE, INC, VICKSBURG, MS. More information available from US FCC via Universal Licensing System and Coast Guard Vessel Documentation Center.

Last reported at 2018-Jan-12 00:04 UTC. Time now 2018-Jan-22 03:47 UTC.
Position N 29°44' W 095°08'.
Warning: this ship's position is 10 days out of date.

Length 29 m; draft 2.9 m.

Type: . MMSI: 367534010.

Date/timePositionNaut miles runAvg speedWind from/ knotsBaromVisibWave heightAir tempDewpointWater temp
2018-Jan-12 00:04N 29°44' W 095°08'0 0.4
2018-Jan-11 23:54N 29°44' W 095°08'0 0.7
2018-Jan-11 23:16N 29°44' W 095°07'3 4.6
2018-Jan-11 22:37N 29°46' W 095°05'1 5.1
2018-Jan-11 22:26N 29°45' W 095°04'2 5.1
2018-Jan-11 21:58N 29°44' W 095°02'2 4.8
2018-Jan-11 21:30N 29°42' W 095°00'3 5.2
2018-Jan-11 21:00N 29°40' W 094°58'3 6.1
2018-Jan-11 20:30N 29°37' W 094°57'2 4.1
2018-Jan-11 19:59N 29°35' W 094°56'0 0.8
2018-Jan-11 19:30N 29°35' W 094°56'2 4.6
2018-Jan-11 19:00N 29°33' W 094°54'3 5.5
2018-Jan-11 18:30N 29°31' W 094°53'  
Track history (hours):
 
Tides and Currents Weather Stations Pressure Air Temp Water Temp Dewpoint Dewpoint Depression Visibility Wind Speed Wind Dir Waves Ship Positions

Sophia Golding

Owner: GOLDING BARGE LINE, INC, VICKSBURG, MS. More information available from US FCC via Universal Licensing System and Coast Guard Vessel Documentation Center.

Last reported at 2018-Jan-12 00:04 UTC. Time now 2018-Jan-22 03:47 UTC.
Position N 29°44' W 095°08'.
Warning: this ship's position is 10 days out of date.

Length 29 m; draft 2.9 m.

Type: . MMSI: 367534010.

Date/timePositionNaut miles runAvg speedWind from/ knotsBaromVisibWave heightAir tempDewpointWater temp
2018-Jan-12 00:04N 29°44' W 095°08'0 0.4
2018-Jan-11 23:54N 29°44' W 095°08'0 0.7
2018-Jan-11 23:16N 29°44' W 095°07'3 4.6
2018-Jan-11 22:37N 29°46' W 095°05'1 5.1
2018-Jan-11 22:26N 29°45' W 095°04'2 5.1
2018-Jan-11 21:58N 29°44' W 095°02'2 4.8
2018-Jan-11 21:30N 29°42' W 095°00'3 5.2
2018-Jan-11 21:00N 29°40' W 094°58'3 6.1
2018-Jan-11 20:30N 29°37' W 094°57'2 4.1
2018-Jan-11 19:59N 29°35' W 094°56'0 0.8
2018-Jan-11 19:30N 29°35' W 094°56'2 4.6
2018-Jan-11 19:00N 29°33' W 094°54'3 5.5
2018-Jan-11 18:30N 29°31' W 094°53'  

Dump ship's entire track history